sensor_id;sensor_type;location;lat;lon;timestamp;pressure;altitude;pressure_sealevel;temperature;humidity
30714;BME280;17465;47.934;33.430;2023-05-22T00:00:56;57284.89;;;-140.43;72.02
30714;BME280;17465;47.934;33.430;2023-05-22T00:03:27;57284.89;;;-140.43;71.67
30714;BME280;17465;47.934;33.430;2023-05-22T00:05:58;57299.72;;;-140.43;71.73
30714;BME280;17465;47.934;33.430;2023-05-22T00:08:29;57299.72;;;-140.43;71.73
30714;BME280;17465;47.934;33.430;2023-05-22T00:10:59;57287.01;;;-140.43;71.75
30714;BME280;17465;47.934;33.430;2023-05-22T00:13:30;57290.18;;;-140.43;72.09
30714;BME280;17465;47.934;33.430;2023-05-22T00:16:00;57290.18;;;-140.43;72.09
30714;BME280;17465;47.934;33.430;2023-05-22T00:18:31;57275.36;;;-140.43;71.73
30714;BME280;17465;47.934;33.430;2023-05-22T00:21:01;57271.13;;;-140.43;72.14
30714;BME280;17465;47.934;33.430;2023-05-22T00:23:32;57267.95;;;-140.43;71.79
30714;BME280;17465;47.934;33.430;2023-05-22T00:26:02;57267.95;;;-140.43;71.79
30714;BME280;17465;47.934;33.430;2023-05-22T00:28:33;57274.30;;;-140.43;72.06
30714;BME280;17465;47.934;33.430;2023-05-22T00:31:04;57300.78;;;-140.43;72.48
30714;BME280;17465;47.934;33.430;2023-05-22T00:33:34;57300.78;;;-140.43;72.48
30714;BME280;17465;47.934;33.430;2023-05-22T00:36:05;57292.30;;;-140.43;71.63
30714;BME280;17465;47.934;33.430;2023-05-22T00:38:35;57257.36;;;-140.43;72.36
30714;BME280;17465;47.934;33.430;2023-05-22T00:41:06;57257.36;;;-140.43;72.36
30714;BME280;17465;47.934;33.430;2023-05-22T00:43:38;57266.89;;;-140.43;71.97
30714;BME280;17465;47.934;33.430;2023-05-22T00:46:18;57279.59;;;-140.43;72.36
30714;BME280;17465;47.934;33.430;2023-05-22T00:48:46;57259.47;;;-140.43;72.38
30714;BME280;17465;47.934;33.430;2023-05-22T00:51:17;57281.71;;;-140.43;71.89
30714;BME280;17465;47.934;33.430;2023-05-22T00:53:49;57280.66;;;-140.43;71.97
30714;BME280;17465;47.934;33.430;2023-05-22T00:56:20;57280.66;;;-140.43;73.17
30714;BME280;17465;47.934;33.430;2023-05-22T00:58:51;57280.66;;;-140.43;73.17
30714;BME280;17465;47.934;33.430;2023-05-22T01:01:23;57269.00;;;-140.43;72.77
30714;BME280;17465;47.934;33.430;2023-05-22T01:04:06;57279.59;;;-140.43;73.60
30714;BME280;17465;47.934;33.430;2023-05-22T01:06:38;57295.48;;;-140.43;73.70
30714;BME280;17465;47.934;33.430;2023-05-22T01:09:13;57260.54;;;-140.43;74.26
30714;BME280;17465;47.934;33.430;2023-05-22T01:12:21;57274.30;;;-140.43;74.06
30714;BME280;17465;47.934;33.430;2023-05-22T01:15:16;57265.83;;;-140.43;74.46
30714;BME280;17465;47.934;33.430;2023-05-22T01:20:40;57259.47;;;-140.43;74.67
30714;BME280;17465;47.934;33.430;2023-05-22T01:32:34;57263.71;;;-140.43;79.44
30714;BME280;17465;47.934;33.430;2023-05-22T01:37:58;57265.83;;;-140.43;81.11
30714;BME280;17465;47.934;33.430;2023-05-22T01:40:30;57254.18;;;-140.43;80.83
30714;BME280;17465;47.934;33.430;2023-05-22T01:43:02;57275.36;;;-140.43;80.86
30714;BME280;17465;47.934;33.430;2023-05-22T01:45:32;57272.18;;;-140.43;82.69
30714;BME280;17465;47.934;33.430;2023-05-22T01:48:03;57272.18;;;-140.43;82.69
30714;BME280;17465;47.934;33.430;2023-05-22T01:50:33;57260.54;;;-140.43;83.17
30714;BME280;17465;47.934;33.430;2023-05-22T02:01:33;57282.77;;;-140.43;85.26
30714;BME280;17465;47.934;33.430;2023-05-22T02:06:59;57256.30;;;-140.43;83.97
30714;BME280;17465;47.934;33.430;2023-05-22T02:09:31;57256.30;;;-140.43;83.97
30714;BME280;17465;47.934;33.430;2023-05-22T02:12:03;57246.77;;;-140.43;83.84
30714;BME280;17465;47.934;33.430;2023-05-22T02:17:25;57251.00;;;-140.43;84.07
30714;BME280;17465;47.934;33.430;2023-05-22T02:19:55;57265.83;;;-140.43;82.50
30714;BME280;17465;47.934;33.430;2023-05-22T02:22:25;57277.48;;;-140.43;83.00
30714;BME280;17465;47.934;33.430;2023-05-22T02:24:56;57257.36;;;-140.43;83.98
30714;BME280;17465;47.934;33.430;2023-05-22T02:27:26;57257.36;;;-140.43;83.98
30714;BME280;17465;47.934;33.430;2023-05-22T02:29:57;57264.77;;;-140.43;84.50
30714;BME280;17465;47.934;33.430;2023-05-22T02:32:27;57264.77;;;-140.43;84.50
30714;BME280;17465;47.934;33.430;2023-05-22T02:34:58;57246.77;;;-140.43;84.64
30714;BME280;17465;47.934;33.430;2023-05-22T02:37:31;57246.77;;;-140.43;84.64
30714;BME280;17465;47.934;33.430;2023-05-22T02:40:02;57276.42;;;-140.43;82.90
30714;BME280;17465;47.934;33.430;2023-05-22T02:42:33;57269.00;;;-140.43;82.93
30714;BME280;17465;47.934;33.430;2023-05-22T02:45:08;57269.00;;;-140.43;82.93
30714;BME280;17465;47.934;33.430;2023-05-22T02:47:39;57238.29;;;-140.43;83.71
30714;BME280;17465;47.934;33.430;2023-05-22T02:50:09;57238.29;;;-140.43;83.71
30714;BME280;17465;47.934;33.430;2023-05-22T02:52:40;57266.89;;;-140.43;82.60
30714;BME280;17465;47.934;33.430;2023-05-22T02:55:10;57270.06;;;-140.43;82.68
30714;BME280;17465;47.934;33.430;2023-05-22T02:57:41;57278.54;;;-140.43;82.35
30714;BME280;17465;47.934;33.430;2023-05-22T03:00:11;57278.54;;;-140.43;82.35
30714;BME280;17465;47.934;33.430;2023-05-22T03:02:42;57306.07;;;-140.43;80.85
30714;BME280;17465;47.934;33.430;2023-05-22T03:05:14;57261.59;;;-140.43;81.35
30714;BME280;17465;47.934;33.430;2023-05-22T03:07:47;57261.59;;;-140.43;81.35
30714;BME280;17465;47.934;33.430;2023-05-22T03:10:18;57261.59;;;-140.43;80.96
30714;BME280;17465;47.934;33.430;2023-05-22T03:12:49;57263.71;;;-140.43;81.41
30714;BME280;17465;47.934;33.430;2023-05-22T03:15:20;57267.95;;;-140.43;80.52
30714;BME280;17465;47.934;33.430;2023-05-22T03:17:50;57267.95;;;-140.43;80.52
30714;BME280;17465;47.934;33.430;2023-05-22T03:20:20;57261.59;;;-140.43;80.37
30714;BME280;17465;47.934;33.430;2023-05-22T03:22:51;57262.65;;;-140.43;79.66
30714;BME280;17465;47.934;33.430;2023-05-22T03:25:22;57272.18;;;-140.43;79.71
30714;BME280;17465;47.934;33.430;2023-05-22T03:27:52;57246.77;;;-140.43;79.82
30714;BME280;17465;47.934;33.430;2023-05-22T03:30:22;57246.77;;;-140.43;79.82
30714;BME280;17465;47.934;33.430;2023-05-22T03:32:54;57263.71;;;-140.43;79.41
30714;BME280;17465;47.934;33.430;2023-05-22T03:35:24;57276.42;;;-140.43;79.41
30714;BME280;17465;47.934;33.430;2023-05-22T03:37:56;57263.71;;;-140.43;79.21
30714;BME280;17465;47.934;33.430;2023-05-22T03:40:29;57263.71;;;-140.43;79.21
30714;BME280;17465;47.934;33.430;2023-05-22T03:42:58;57282.77;;;-140.43;79.38
30714;BME280;17465;47.934;33.430;2023-05-22T03:45:28;57290.18;;;-140.43;79.07
30714;BME280;17465;47.934;33.430;2023-05-22T03:47:59;57275.36;;;-140.43;79.14
30714;BME280;17465;47.934;33.430;2023-05-22T03:50:29;57284.89;;;-140.43;79.14
30714;BME280;17465;47.934;33.430;2023-05-22T03:53:00;57262.65;;;-140.43;79.48
30714;BME280;17465;47.934;33.430;2023-05-22T03:55:30;57257.36;;;-140.43;79.13
30714;BME280;17465;47.934;33.430;2023-05-22T03:58:01;57247.82;;;-140.43;79.16
30714;BME280;17465;47.934;33.430;2023-05-22T04:00:33;57247.82;;;-140.43;79.63
30714;BME280;17465;47.934;33.430;2023-05-22T04:03:03;57247.82;;;-140.43;79.63
30714;BME280;17465;47.934;33.430;2023-05-22T04:05:35;57272.18;;;-140.43;79.22
30714;BME280;17465;47.934;33.430;2023-05-22T04:08:05;57272.18;;;-140.43;79.22
30714;BME280;17465;47.934;33.430;2023-05-22T04:10:36;57260.54;;;-140.43;79.11
30714;BME280;17465;47.934;33.430;2023-05-22T04:13:07;57293.36;;;-140.43;78.34
30714;BME280;17465;47.934;33.430;2023-05-22T04:15:37;57260.54;;;-140.43;78.70
30714;BME280;17465;47.934;33.430;2023-05-22T04:18:08;57301.84;;;-140.43;77.55
30714;BME280;17465;47.934;33.430;2023-05-22T04:20:39;57285.95;;;-140.43;78.03
30714;BME280;17465;47.934;33.430;2023-05-22T04:23:10;57285.95;;;-140.43;78.03
30714;BME280;17465;47.934;33.430;2023-05-22T04:25:40;57275.36;;;-140.43;78.29
30714;BME280;17465;47.934;33.430;2023-05-22T04:28:10;57276.42;;;-140.43;76.86
30714;BME280;17465;47.934;33.430;2023-05-22T04:30:42;57287.01;;;-140.43;76.45
30714;BME280;17465;47.934;33.430;2023-05-22T04:33:13;57287.01;;;-140.43;76.45
30714;BME280;17465;47.934;33.430;2023-05-22T04:35:43;57314.55;;;-140.43;76.65
30714;BME280;17465;47.934;33.430;2023-05-22T04:38:14;57314.55;;;-140.43;76.65
30714;BME280;17465;47.934;33.430;2023-05-22T04:40:44;57294.42;;;-140.43;75.92
30714;BME280;17465;47.934;33.430;2023-05-22T04:43:15;57290.18;;;-140.43;75.08
30714;BME280;17465;47.934;33.430;2023-05-22T04:45:45;57312.43;;;-140.43;75.98
30714;BME280;17465;47.934;33.430;2023-05-22T04:48:16;57309.25;;;-140.43;74.01
30714;BME280;17465;47.934;33.430;2023-05-22T04:50:47;57309.25;;;-140.43;74.01
30714;BME280;17465;47.934;33.430;2023-05-22T04:53:18;57315.61;;;-140.43;74.77
30714;BME280;17465;47.934;33.430;2023-05-22T04:55:48;57309.25;;;-140.43;73.65
30714;BME280;17465;47.934;33.430;2023-05-22T04:58:19;57301.84;;;-140.43;72.36
30714;BME280;17465;47.934;33.430;2023-05-22T05:00:49;57301.84;;;-140.43;72.36
30714;BME280;17465;47.934;33.430;2023-05-22T05:03:39;57343.14;;;-140.43;72.13
30714;BME280;17465;47.934;33.430;2023-05-22T05:07:12;57319.84;;;-140.43;74.00
30714;BME280;17465;47.934;33.430;2023-05-22T05:09:43;57315.61;;;-140.43;73.50
30714;BME280;17465;47.934;33.430;2023-05-22T05:12:14;57342.08;;;-140.43;74.28
30714;BME280;17465;47.934;33.430;2023-05-22T05:14:44;57342.08;;;-140.43;74.28
30714;BME280;17465;47.934;33.430;2023-05-22T05:17:15;57338.90;;;-140.43;72.41
30714;BME280;17465;47.934;33.430;2023-05-22T05:19:45;57343.14;;;-140.43;71.13
30714;BME280;17465;47.934;33.430;2023-05-22T05:22:15;57343.14;;;-140.43;71.13
30714;BME280;17465;47.934;33.430;2023-05-22T05:24:46;57370.68;;;-140.43;71.48
30714;BME280;17465;47.934;33.430;2023-05-22T05:27:16;57370.68;;;-140.43;71.48
30714;BME280;17465;47.934;33.430;2023-05-22T05:29:46;57349.49;;;-140.43;71.76
30714;BME280;17465;47.934;33.430;2023-05-22T05:32:17;57356.91;;;-140.43;71.82
30714;BME280;17465;47.934;33.430;2023-05-22T05:34:47;57346.32;;;-140.43;73.19
30714;BME280;17465;47.934;33.430;2023-05-22T05:37:37;57360.08;;;-140.43;72.87
30714;BME280;17465;47.934;33.430;2023-05-22T05:42:59;57365.38;;;-140.43;73.17
30714;BME280;17465;47.934;33.430;2023-05-22T05:45:30;57365.38;;;-140.43;73.17
30714;BME280;17465;47.934;33.430;2023-05-22T05:48:00;57359.03;;;-140.43;74.42
30714;BME280;17465;47.934;33.430;2023-05-22T05:50:31;57326.20;;;-140.43;74.75
30714;BME280;17465;47.934;33.430;2023-05-22T05:53:01;57352.67;;;-140.43;75.73
30714;BME280;17465;47.934;33.430;2023-05-22T05:55:32;57352.67;;;-140.43;75.73
30714;BME280;17465;47.934;33.430;2023-05-22T05:58:03;57327.25;;;-140.43;74.18
30714;BME280;17465;47.934;33.430;2023-05-22T06:00:34;57327.25;;;-140.43;74.18
30714;BME280;17465;47.934;33.430;2023-05-22T06:03:05;57353.73;;;-140.43;73.31
30714;BME280;17465;47.934;33.430;2023-05-22T06:05:35;57365.38;;;-140.43;74.30
30714;BME280;17465;47.934;33.430;2023-05-22T06:08:06;57351.61;;;-140.43;74.92
30714;BME280;17465;47.934;33.430;2023-05-22T06:10:36;57359.03;;;-140.43;73.94
30714;BME280;17465;47.934;33.430;2023-05-22T06:13:07;57353.73;;;-140.43;73.18
30714;BME280;17465;47.934;33.430;2023-05-22T06:15:37;57353.73;;;-140.43;73.18
30714;BME280;17465;47.934;33.430;2023-05-22T06:18:07;57373.85;;;-140.43;72.66
30714;BME280;17465;47.934;33.430;2023-05-22T06:20:38;57371.73;;;-140.43;70.96
30714;BME280;17465;47.934;33.430;2023-05-22T06:23:09;57373.85;;;-140.43;69.64
30714;BME280;17465;47.934;33.430;2023-05-22T06:25:39;57373.85;;;-140.43;69.64
30714;BME280;17465;47.934;33.430;2023-05-22T06:28:09;57366.44;;;-140.43;71.68
30714;BME280;17465;47.934;33.430;2023-05-22T06:30:40;57395.03;;;-140.43;68.00
30714;BME280;17465;47.934;33.430;2023-05-22T06:33:10;57395.03;;;-140.43;68.00
30714;BME280;17465;47.934;33.430;2023-05-22T06:35:40;57426.80;;;-140.43;68.04
30714;BME280;17465;47.934;33.430;2023-05-22T06:38:11;57428.92;;;-140.43;65.62
30714;BME280;17465;47.934;33.430;2023-05-22T06:40:41;57456.46;;;-140.43;64.29
30714;BME280;17465;47.934;33.430;2023-05-22T06:43:12;57471.29;;;-140.43;62.83
30714;BME280;17465;47.934;33.430;2023-05-22T06:45:42;57492.47;;;-140.43;61.13
30714;BME280;17465;47.934;33.430;2023-05-22T06:48:13;57499.88;;;-140.43;59.35
30714;BME280;17465;47.934;33.430;2023-05-22T06:50:43;57465.99;;;-140.43;60.75
30714;BME280;17465;47.934;33.430;2023-05-22T06:53:13;57473.41;;;-140.43;60.17
30714;BME280;17465;47.934;33.430;2023-05-22T06:55:44;57473.41;;;-140.43;60.17
30714;BME280;17465;47.934;33.430;2023-05-22T06:58:14;57572.96;;;-140.43;54.76
30714;BME280;17465;47.934;33.430;2023-05-22T07:00:45;57572.96;;;-140.43;54.76
30714;BME280;17465;47.934;33.430;2023-05-22T07:03:15;57556.02;;;-140.43;54.98
30714;BME280;17465;47.934;33.430;2023-05-22T07:05:45;57556.02;;;-140.43;54.98
30714;BME280;17465;47.934;33.430;2023-05-22T07:08:16;57574.02;;;-140.43;54.26
30714;BME280;17465;47.934;33.430;2023-05-22T07:10:47;57584.61;;;-140.43;49.23
30714;BME280;17465;47.934;33.430;2023-05-22T07:13:17;57631.22;;;-140.43;52.54
30714;BME280;17465;47.934;33.430;2023-05-22T07:15:47;57660.87;;;-140.43;46.73
30714;BME280;17465;47.934;33.430;2023-05-22T07:18:18;57660.87;;;-140.43;46.73
30714;BME280;17465;47.934;33.430;2023-05-22T07:20:48;57659.81;;;-140.43;50.60
30714;BME280;17465;47.934;33.430;2023-05-22T07:23:19;57625.92;;;-140.43;49.46
30714;BME280;17465;47.934;33.430;2023-05-22T07:25:49;57625.92;;;-140.43;49.46
30714;BME280;17465;47.934;33.430;2023-05-22T07:28:19;57656.64;;;-140.43;49.06
30714;BME280;17465;47.934;33.430;2023-05-22T07:30:50;57729.72;;;-140.43;45.16
30714;BME280;17465;47.934;33.430;2023-05-22T07:33:21;57803.86;;;-140.43;43.02
30714;BME280;17465;47.934;33.430;2023-05-22T07:35:51;57747.72;;;-140.43;42.73
30714;BME280;17465;47.934;33.430;2023-05-22T07:38:22;57778.44;;;-140.43;41.58
30714;BME280;17465;47.934;33.430;2023-05-22T07:40:52;57757.26;;;-140.43;41.90
30714;BME280;17465;47.934;33.430;2023-05-22T07:43:22;57757.26;;;-140.43;41.90
30714;BME280;17465;47.934;33.430;2023-05-22T07:45:53;57791.15;;;-140.43;41.00
30714;BME280;17465;47.934;33.430;2023-05-22T07:48:24;57791.15;;;-140.43;41.00
30714;BME280;17465;47.934;33.430;2023-05-22T07:50:54;57758.32;;;-140.43;40.58
30714;BME280;17465;47.934;33.430;2023-05-22T07:53:24;57764.67;;;-140.43;42.00
30714;BME280;17465;47.934;33.430;2023-05-22T07:55:55;57805.98;;;-140.43;41.42
30714;BME280;17465;47.934;33.430;2023-05-22T07:58:25;57854.70;;;-140.43;40.13
30714;BME280;17465;47.934;33.430;2023-05-22T08:00:56;57854.70;;;-140.43;40.13
30714;BME280;17465;47.934;33.430;2023-05-22T08:03:26;57846.23;;;-140.43;35.17
30714;BME280;17465;47.934;33.430;2023-05-22T08:05:57;57890.72;;;-140.43;36.18
30714;BME280;17465;47.934;33.430;2023-05-22T08:08:28;57941.56;;;-140.43;34.42
30714;BME280;17465;47.934;33.430;2023-05-22T08:11:00;57932.03;;;-140.43;33.02
30714;BME280;17465;47.934;33.430;2023-05-22T08:13:32;57821.87;;;-140.43;36.08
30714;BME280;17465;47.934;33.430;2023-05-22T08:16:03;57785.86;;;-140.43;36.96
30714;BME280;17465;47.934;33.430;2023-05-22T08:18:34;57755.14;;;-140.43;36.94
30714;BME280;17465;47.934;33.430;2023-05-22T08:21:04;57755.14;;;-140.43;36.94
30714;BME280;17465;47.934;33.430;2023-05-22T08:23:35;57730.78;;;-140.43;37.59
30714;BME280;17465;47.934;33.430;2023-05-22T08:26:06;57730.78;;;-140.43;37.59
30714;BME280;17465;47.934;33.430;2023-05-22T08:28:36;57760.44;;;-140.43;36.33
30714;BME280;17465;47.934;33.430;2023-05-22T08:31:07;57696.88;;;-140.43;38.52
30714;BME280;17465;47.934;33.430;2023-05-22T08:33:38;57748.79;;;-140.43;36.83
30714;BME280;17465;47.934;33.430;2023-05-22T08:36:09;57844.11;;;-140.43;36.07
30714;BME280;17465;47.934;33.430;2023-05-22T08:38:40;57844.11;;;-140.43;33.16
30714;BME280;17465;47.934;33.430;2023-05-22T08:41:11;57844.11;;;-140.43;33.16
30714;BME280;17465;47.934;33.430;2023-05-22T08:44:00;57816.57;;;-140.43;34.75
30714;BME280;17465;47.934;33.430;2023-05-22T08:46:31;57771.03;;;-140.43;35.65
30714;BME280;17465;47.934;33.430;2023-05-22T08:49:04;57738.19;;;-140.43;35.10
30714;BME280;17465;47.934;33.430;2023-05-22T08:51:39;57738.19;;;-140.43;35.10
30714;BME280;17465;47.934;33.430;2023-05-22T08:54:17;57724.42;;;-140.43;37.30
30714;BME280;17465;47.934;33.430;2023-05-22T08:56:49;57785.86;;;-140.43;33.36
30714;BME280;17465;47.934;33.430;2023-05-22T08:59:21;57785.86;;;-140.43;33.36
30714;BME280;17465;47.934;33.430;2023-05-22T09:01:52;57761.49;;;-140.43;35.45
30714;BME280;17465;47.934;33.430;2023-05-22T09:04:24;57702.18;;;-140.43;36.73
30714;BME280;17465;47.934;33.430;2023-05-22T09:06:54;57702.18;;;-140.43;36.73
30714;BME280;17465;47.934;33.430;2023-05-22T09:09:24;57730.78;;;-140.43;36.93
30714;BME280;17465;47.934;33.430;2023-05-22T09:11:55;57677.82;;;-140.43;36.57
30714;BME280;17465;47.934;33.430;2023-05-22T09:14:25;57677.82;;;-140.43;36.57
30714;BME280;17465;47.934;33.430;2023-05-22T09:16:56;57710.65;;;-140.43;36.74
30714;BME280;17465;47.934;33.430;2023-05-22T09:19:26;57742.43;;;-140.43;36.67
30714;BME280;17465;47.934;33.430;2023-05-22T09:22:03;57706.42;;;-140.43;37.06
30714;BME280;17465;47.934;33.430;2023-05-22T09:24:43;57725.48;;;-140.43;36.12
30714;BME280;17465;47.934;33.430;2023-05-22T09:27:11;57748.79;;;-140.43;37.77
30714;BME280;17465;47.934;33.430;2023-05-22T09:29:49;57757.26;;;-140.43;37.47
30714;BME280;17465;47.934;33.430;2023-05-22T09:32:22;57769.97;;;-140.43;37.37
30714;BME280;17465;47.934;33.430;2023-05-22T09:34:53;57769.97;;;-140.43;37.37
30714;BME280;17465;47.934;33.430;2023-05-22T09:37:26;57769.97;;;-140.43;36.06
30714;BME280;17465;47.934;33.430;2023-05-22T09:39:57;57735.02;;;-140.43;35.85
30714;BME280;17465;47.934;33.430;2023-05-22T09:42:27;57735.02;;;-140.43;35.85
30714;BME280;17465;47.934;33.430;2023-05-22T09:45:03;57751.96;;;-140.43;35.36
30714;BME280;17465;47.934;33.430;2023-05-22T09:47:34;57731.84;;;-140.43;34.11
30714;BME280;17465;47.934;33.430;2023-05-22T09:52:56;57728.66;;;-140.43;35.89
30714;BME280;17465;47.934;33.430;2023-05-22T09:55:28;57768.91;;;-140.43;37.53
30714;BME280;17465;47.934;33.430;2023-05-22T09:58:01;57768.91;;;-140.43;37.53
30714;BME280;17465;47.934;33.430;2023-05-22T10:00:34;57736.07;;;-140.43;35.77
30714;BME280;17465;47.934;33.430;2023-05-22T10:03:09;57736.07;;;-140.43;35.77
30714;BME280;17465;47.934;33.430;2023-05-22T10:05:47;57786.91;;;-140.43;36.91
30714;BME280;17465;47.934;33.430;2023-05-22T10:08:20;57786.91;;;-140.43;36.91
30714;BME280;17465;47.934;33.430;2023-05-22T10:10:53;57756.20;;;-140.43;37.44
30714;BME280;17465;47.934;33.430;2023-05-22T10:13:24;57783.74;;;-140.43;37.36
30714;BME280;17465;47.934;33.430;2023-05-22T10:15:57;57767.85;;;-140.43;37.22
30714;BME280;17465;47.934;33.430;2023-05-22T10:18:28;57767.85;;;-140.43;37.22
30714;BME280;17465;47.934;33.430;2023-05-22T10:20:59;57768.91;;;-140.43;36.40
30714;BME280;17465;47.934;33.430;2023-05-22T10:23:30;57730.78;;;-140.43;36.07
30714;BME280;17465;47.934;33.430;2023-05-22T10:26:01;57730.78;;;-140.43;36.07
30714;BME280;17465;47.934;33.430;2023-05-22T10:28:37;57725.48;;;-140.43;37.75
30714;BME280;17465;47.934;33.430;2023-05-22T10:31:17;57693.71;;;-140.43;38.61
30714;BME280;17465;47.934;33.430;2023-05-22T10:33:43;57705.36;;;-140.43;38.42
30714;BME280;17465;47.934;33.430;2023-05-22T10:36:29;57694.77;;;-140.43;38.58
30714;BME280;17465;47.934;33.430;2023-05-22T10:39:23;57682.05;;;-140.43;38.68
30714;BME280;17465;47.934;33.430;2023-05-22T10:41:48;57700.06;;;-140.43;39.78
30714;BME280;17465;47.934;33.430;2023-05-22T10:44:20;57661.93;;;-140.43;40.38
30714;BME280;17465;47.934;33.430;2023-05-22T10:46:51;57640.75;;;-140.43;40.84
30714;BME280;17465;47.934;33.430;2023-05-22T10:49:23;57644.98;;;-140.43;42.86
30714;BME280;17465;47.934;33.430;2023-05-22T10:51:56;57636.51;;;-140.43;42.33
30714;BME280;17465;47.934;33.430;2023-05-22T10:54:45;57653.46;;;-140.43;42.81
30714;BME280;17465;47.934;33.430;2023-05-22T10:57:16;57653.46;;;-140.43;42.81
30714;BME280;17465;47.934;33.430;2023-05-22T10:59:47;57639.69;;;-140.43;42.48
30714;BME280;17465;47.934;33.430;2023-05-22T11:02:30;57633.34;;;-140.43;43.00
30714;BME280;17465;47.934;33.430;2023-05-22T11:04:57;57633.34;;;-140.43;43.00
30714;BME280;17465;47.934;33.430;2023-05-22T11:07:23;57657.70;;;-140.43;42.48
30714;BME280;17465;47.934;33.430;2023-05-22T11:09:58;57620.62;;;-140.43;44.29
30714;BME280;17465;47.934;33.430;2023-05-22T11:12:29;57596.27;;;-140.43;42.01
30714;BME280;17465;47.934;33.430;2023-05-22T11:15:03;57653.46;;;-140.43;42.63
30714;BME280;17465;47.934;33.430;2023-05-22T11:17:47;57653.46;;;-140.43;42.63
30714;BME280;17465;47.934;33.430;2023-05-22T11:20:25;57622.74;;;-140.43;42.99
30714;BME280;17465;47.934;33.430;2023-05-22T11:23:02;57621.68;;;-140.43;43.63
30714;BME280;17465;47.934;33.430;2023-05-22T11:25:33;57623.80;;;-140.43;43.13
30714;BME280;17465;47.934;33.430;2023-05-22T11:30:59;57603.68;;;-140.43;42.28
30714;BME280;17465;47.934;33.430;2023-05-22T11:33:30;57598.38;;;-140.43;42.78
30714;BME280;17465;47.934;33.430;2023-05-22T11:36:20;57590.97;;;-140.43;42.17
30714;BME280;17465;47.934;33.430;2023-05-22T11:39:01;57545.43;;;-140.43;40.92
30714;BME280;17465;47.934;33.430;2023-05-22T11:41:40;57545.43;;;-140.43;40.92
30714;BME280;17465;47.934;33.430;2023-05-22T11:44:11;57582.50;;;-140.43;44.64
30714;BME280;17465;47.934;33.430;2023-05-22T11:46:49;57566.61;;;-140.43;43.90
30714;BME280;17465;47.934;33.430;2023-05-22T11:49:24;57534.84;;;-140.43;45.61
30714;BME280;17465;47.934;33.430;2023-05-22T11:51:56;57534.84;;;-140.43;45.61
30714;BME280;17465;47.934;33.430;2023-05-22T11:54:32;57551.78;;;-140.43;44.41
30714;BME280;17465;47.934;33.430;2023-05-22T11:57:08;57551.78;;;-140.43;44.41
30714;BME280;17465;47.934;33.430;2023-05-22T11:59:58;57562.37;;;-140.43;45.10
30714;BME280;17465;47.934;33.430;2023-05-22T12:02:46;57550.72;;;-140.43;44.62
30714;BME280;17465;47.934;33.430;2023-05-22T12:05:27;57531.66;;;-140.43;47.84
30714;BME280;17465;47.934;33.430;2023-05-22T12:11:55;57558.13;;;-140.43;47.81
30714;BME280;17465;47.934;33.430;2023-05-22T12:17:40;57541.19;;;-140.43;47.14
30714;BME280;17465;47.934;33.430;2023-05-22T12:20:12;57525.30;;;-140.43;46.99
30714;BME280;17465;47.934;33.430;2023-05-22T12:25:44;57511.54;;;-140.43;47.64
30714;BME280;17465;47.934;33.430;2023-05-22T12:28:13;57563.43;;;-140.43;45.44
30714;BME280;17465;47.934;33.430;2023-05-22T12:30:56;57558.13;;;-140.43;47.67
30714;BME280;17465;47.934;33.430;2023-05-22T12:33:33;57527.42;;;-140.43;47.61
30714;BME280;17465;47.934;33.430;2023-05-22T12:36:08;57566.61;;;-140.43;43.67
30714;BME280;17465;47.934;33.430;2023-05-22T12:38:43;57566.61;;;-140.43;43.67
30714;BME280;17465;47.934;33.430;2023-05-22T12:41:19;57550.72;;;-140.43;48.63
30714;BME280;17465;47.934;33.430;2023-05-22T12:43:50;57548.61;;;-140.43;50.06
30714;BME280;17465;47.934;33.430;2023-05-22T12:46:34;57548.61;;;-140.43;50.06
30714;BME280;17465;47.934;33.430;2023-05-22T12:49:12;57563.43;;;-140.43;46.88
30714;BME280;17465;47.934;33.430;2023-05-22T12:52:08;57540.13;;;-140.43;50.97
30714;BME280;17465;47.934;33.430;2023-05-22T12:55:00;57540.13;;;-140.43;50.97
30714;BME280;17465;47.934;33.430;2023-05-22T13:03:45;57538.01;;;-140.43;48.32
30714;BME280;17465;47.934;33.430;2023-05-22T13:06:19;57563.43;;;-140.43;46.13
30714;BME280;17465;47.934;33.430;2023-05-22T13:08:50;57563.43;;;-140.43;46.13
30714;BME280;17465;47.934;33.430;2023-05-22T13:11:51;55935.94;;;-140.43;45.74
30714;BME280;17465;47.934;33.430;2023-05-22T13:14:48;57581.44;;;-140.43;47.37
30714;BME280;17465;47.934;33.430;2023-05-22T13:17:24;57550.72;;;-140.43;45.10
30714;BME280;17465;47.934;33.430;2023-05-22T13:20:11;57545.43;;;-140.43;44.74
30714;BME280;17465;47.934;33.430;2023-05-22T13:22:49;57621.68;;;-140.43;49.63
30714;BME280;17465;47.934;33.430;2023-05-22T13:25:20;57621.68;;;-140.43;49.63
30714;BME280;17465;47.934;33.430;2023-05-22T13:27:59;57574.02;;;-140.43;46.22
30714;BME280;17465;47.934;33.430;2023-05-22T13:30:35;57556.02;;;-140.43;44.76
30714;BME280;17465;47.934;33.430;2023-05-22T13:36:39;57568.73;;;-140.43;44.55
30714;BME280;17465;47.934;33.430;2023-05-22T13:39:19;57603.68;;;-140.43;46.32
30714;BME280;17465;47.934;33.430;2023-05-22T13:48:20;57606.86;;;-140.43;42.96
30714;BME280;17465;47.934;33.430;2023-05-22T13:50:51;57581.44;;;-140.43;44.56
30714;BME280;17465;47.934;33.430;2023-05-22T13:53:22;57593.09;;;-140.43;43.28
30714;BME280;17465;47.934;33.430;2023-05-22T13:55:57;57601.56;;;-140.43;43.93
30714;BME280;17465;47.934;33.430;2023-05-22T13:58:30;57589.91;;;-140.43;46.20
30714;BME280;17465;47.934;33.430;2023-05-22T14:04:21;57600.50;;;-140.43;42.39
30714;BME280;17465;47.934;33.430;2023-05-22T14:06:48;57598.38;;;-140.43;43.35